sensor_id;sensor_type;location;lat;lon;timestamp;temperature;humidity
78212;SHT31;67490;52.086;5.122;2023-03-19T00:00:06;14.38;72.02
78212;SHT31;67490;52.086;5.122;2023-03-19T00:02:51;14.21;72.04
78212;SHT31;67490;52.086;5.122;2023-03-19T00:05:36;14.20;72.54
78212;SHT31;67490;52.086;5.122;2023-03-19T00:08:21;14.22;72.78
78212;SHT31;67490;52.086;5.122;2023-03-19T00:11:08;14.22;72.46
78212;SHT31;67490;52.086;5.122;2023-03-19T00:13:53;14.25;72.44
78212;SHT31;67490;52.086;5.122;2023-03-19T00:16:37;14.24;72.90
78212;SHT31;67490;52.086;5.122;2023-03-19T00:19:22;14.11;73.39
78212;SHT31;67490;52.086;5.122;2023-03-19T00:22:06;14.14;72.79
78212;SHT31;67490;52.086;5.122;2023-03-19T00:24:51;14.08;73.39
78212;SHT31;67490;52.086;5.122;2023-03-19T00:27:38;14.14;73.05
78212;SHT31;67490;52.086;5.122;2023-03-19T00:30:22;14.01;73.50
78212;SHT31;67490;52.086;5.122;2023-03-19T00:33:07;14.16;72.99
78212;SHT31;67490;52.086;5.122;2023-03-19T00:35:51;13.97;73.87
78212;SHT31;67490;52.086;5.122;2023-03-19T00:38:36;13.97;73.76
78212;SHT31;67490;52.086;5.122;2023-03-19T00:41:21;13.93;73.65
78212;SHT31;67490;52.086;5.122;2023-03-19T00:44:06;13.87;74.04
78212;SHT31;67490;52.086;5.122;2023-03-19T00:46:51;13.80;74.18
78212;SHT31;67490;52.086;5.122;2023-03-19T00:49:36;13.87;73.82
78212;SHT31;67490;52.086;5.122;2023-03-19T00:52:21;13.90;73.79
78212;SHT31;67490;52.086;5.122;2023-03-19T00:55:06;13.74;74.51
78212;SHT31;67490;52.086;5.122;2023-03-19T00:57:50;13.86;73.88
78212;SHT31;67490;52.086;5.122;2023-03-19T01:00:37;13.89;73.90
78212;SHT31;67490;52.086;5.122;2023-03-19T01:03:21;14.04;73.36
78212;SHT31;67490;52.086;5.122;2023-03-19T01:06:06;13.96;73.48
78212;SHT31;67490;52.086;5.122;2023-03-19T01:08:50;13.98;73.35
78212;SHT31;67490;52.086;5.122;2023-03-19T01:11:35;13.98;73.45
78212;SHT31;67490;52.086;5.122;2023-03-19T01:14:20;13.89;73.80
78212;SHT31;67490;52.086;5.122;2023-03-19T01:17:05;13.89;73.72
78212;SHT31;67490;52.086;5.122;2023-03-19T01:19:50;14.01;73.24
78212;SHT31;67490;52.086;5.122;2023-03-19T01:22:35;13.90;73.88
78212;SHT31;67490;52.086;5.122;2023-03-19T01:25:19;13.80;74.11
78212;SHT31;67490;52.086;5.122;2023-03-19T01:28:04;13.86;73.73
78212;SHT31;67490;52.086;5.122;2023-03-19T01:30:49;13.87;74.16
78212;SHT31;67490;52.086;5.122;2023-03-19T01:33:35;14.08;73.46
78212;SHT31;67490;52.086;5.122;2023-03-19T01:36:20;14.06;73.45
78212;SHT31;67490;52.086;5.122;2023-03-19T01:39:05;14.14;73.29
78212;SHT31;67490;52.086;5.122;2023-03-19T01:41:50;14.13;73.20
78212;SHT31;67490;52.086;5.122;2023-03-19T01:44:36;14.13;73.12
78212;SHT31;67490;52.086;5.122;2023-03-19T01:47:29;14.17;73.03
78212;SHT31;67490;52.086;5.122;2023-03-19T01:50:24;14.16;72.78
78212;SHT31;67490;52.086;5.122;2023-03-19T01:53:12;14.16;72.71
78212;SHT31;67490;52.086;5.122;2023-03-19T01:56:02;13.98;73.29
78212;SHT31;67490;52.086;5.122;2023-03-19T01:58:52;13.89;73.78
78212;SHT31;67490;52.086;5.122;2023-03-19T02:01:46;13.86;73.90
78212;SHT31;67490;52.086;5.122;2023-03-19T02:04:37;13.91;73.42
78212;SHT31;67490;52.086;5.122;2023-03-19T02:07:24;13.86;73.79
78212;SHT31;67490;52.086;5.122;2023-03-19T02:10:12;13.83;73.91
78212;SHT31;67490;52.086;5.122;2023-03-19T02:12:57;13.79;73.87
78212;SHT31;67490;52.086;5.122;2023-03-19T02:15:42;13.86;73.63
78212;SHT31;67490;52.086;5.122;2023-03-19T02:18:26;13.86;73.57
78212;SHT31;67490;52.086;5.122;2023-03-19T02:21:14;13.80;74.10
78212;SHT31;67490;52.086;5.122;2023-03-19T02:24:07;13.87;73.85
78212;SHT31;67490;52.086;5.122;2023-03-19T02:26:57;13.79;73.97
78212;SHT31;67490;52.086;5.122;2023-03-19T02:29:42;13.59;74.80
78212;SHT31;67490;52.086;5.122;2023-03-19T02:32:26;13.65;74.57
78212;SHT31;67490;52.086;5.122;2023-03-19T02:35:10;13.52;75.07
78212;SHT31;67490;52.086;5.122;2023-03-19T02:37:54;13.42;75.33
78212;SHT31;67490;52.086;5.122;2023-03-19T02:40:44;13.32;75.83
78212;SHT31;67490;52.086;5.122;2023-03-19T02:43:34;13.39;75.29
78212;SHT31;67490;52.086;5.122;2023-03-19T02:46:18;13.29;75.95
78212;SHT31;67490;52.086;5.122;2023-03-19T02:49:02;13.32;75.75
78212;SHT31;67490;52.086;5.122;2023-03-19T02:51:47;13.26;75.58
78212;SHT31;67490;52.086;5.122;2023-03-19T02:54:32;13.12;75.95
78212;SHT31;67490;52.086;5.122;2023-03-19T02:57:16;13.07;76.20
78212;SHT31;67490;52.086;5.122;2023-03-19T03:00:03;13.07;76.19
78212;SHT31;67490;52.086;5.122;2023-03-19T03:02:48;13.07;76.08
78212;SHT31;67490;52.086;5.122;2023-03-19T03:05:32;13.05;75.85
78212;SHT31;67490;52.086;5.122;2023-03-19T03:08:17;13.16;75.44
78212;SHT31;67490;52.086;5.122;2023-03-19T03:11:02;13.21;75.28
78212;SHT31;67490;52.086;5.122;2023-03-19T03:13:46;13.11;75.62
78212;SHT31;67490;52.086;5.122;2023-03-19T03:16:32;13.15;75.43
78212;SHT31;67490;52.086;5.122;2023-03-19T03:19:17;13.32;75.00
78212;SHT31;67490;52.086;5.122;2023-03-19T03:22:01;13.52;74.31
78212;SHT31;67490;52.086;5.122;2023-03-19T03:24:46;13.56;74.22
78212;SHT31;67490;52.086;5.122;2023-03-19T03:27:30;13.58;73.70
78212;SHT31;67490;52.086;5.122;2023-03-19T03:30:16;13.36;74.42
78212;SHT31;67490;52.086;5.122;2023-03-19T03:33:02;13.31;74.50
78212;SHT31;67490;52.086;5.122;2023-03-19T03:35:47;13.23;74.86
78212;SHT31;67490;52.086;5.122;2023-03-19T03:38:31;13.35;74.33
78212;SHT31;67490;52.086;5.122;2023-03-19T03:41:16;13.32;74.38
78212;SHT31;67490;52.086;5.122;2023-03-19T03:44:00;13.35;74.35
78212;SHT31;67490;52.086;5.122;2023-03-19T03:46:45;13.38;74.16
78212;SHT31;67490;52.086;5.122;2023-03-19T03:49:31;13.39;73.92
78212;SHT31;67490;52.086;5.122;2023-03-19T03:52:15;13.38;74.06
78212;SHT31;67490;52.086;5.122;2023-03-19T03:55:00;13.23;74.36
78212;SHT31;67490;52.086;5.122;2023-03-19T03:57:45;13.21;74.39
78212;SHT31;67490;52.086;5.122;2023-03-19T04:00:30;13.21;74.36
78212;SHT31;67490;52.086;5.122;2023-03-19T04:03:14;13.18;74.24
78212;SHT31;67490;52.086;5.122;2023-03-19T04:06:04;13.15;74.31
78212;SHT31;67490;52.086;5.122;2023-03-19T04:08:49;13.09;74.43
78212;SHT31;67490;52.086;5.122;2023-03-19T04:11:37;12.90;74.93
78212;SHT31;67490;52.086;5.122;2023-03-19T04:14:22;12.84;74.89
78212;SHT31;67490;52.086;5.122;2023-03-19T04:17:07;12.90;74.70
78212;SHT31;67490;52.086;5.122;2023-03-19T04:19:51;12.95;74.52
78212;SHT31;67490;52.086;5.122;2023-03-19T04:22:36;12.92;74.56
78212;SHT31;67490;52.086;5.122;2023-03-19T04:25:21;12.83;74.59
78212;SHT31;67490;52.086;5.122;2023-03-19T04:28:06;12.92;74.27
78212;SHT31;67490;52.086;5.122;2023-03-19T04:30:51;12.77;74.78
78212;SHT31;67490;52.086;5.122;2023-03-19T04:33:36;12.79;74.78
78212;SHT31;67490;52.086;5.122;2023-03-19T04:36:21;12.83;74.49
78212;SHT31;67490;52.086;5.122;2023-03-19T04:39:07;12.83;74.42
78212;SHT31;67490;52.086;5.122;2023-03-19T04:41:51;12.73;74.70
78212;SHT31;67490;52.086;5.122;2023-03-19T04:44:35;12.71;74.67
78212;SHT31;67490;52.086;5.122;2023-03-19T04:47:20;12.67;74.76
78212;SHT31;67490;52.086;5.122;2023-03-19T04:50:06;12.64;74.72
78212;SHT31;67490;52.086;5.122;2023-03-19T04:52:51;12.70;74.36
78212;SHT31;67490;52.086;5.122;2023-03-19T04:55:37;12.61;74.63
78212;SHT31;67490;52.086;5.122;2023-03-19T04:58:23;12.54;74.47
78212;SHT31;67490;52.086;5.122;2023-03-19T05:01:07;12.64;74.18
78212;SHT31;67490;52.086;5.122;2023-03-19T05:03:52;12.36;74.97
78212;SHT31;67490;52.086;5.122;2023-03-19T05:06:36;12.37;75.09
78212;SHT31;67490;52.086;5.122;2023-03-19T05:09:21;12.29;75.12
78212;SHT31;67490;52.086;5.122;2023-03-19T05:12:08;12.23;75.46
78212;SHT31;67490;52.086;5.122;2023-03-19T05:14:52;12.23;75.33
78212;SHT31;67490;52.086;5.122;2023-03-19T05:17:37;12.15;75.67
78212;SHT31;67490;52.086;5.122;2023-03-19T05:20:21;11.79;77.00
78212;SHT31;67490;52.086;5.122;2023-03-19T05:23:07;11.81;77.14
78212;SHT31;67490;52.086;5.122;2023-03-19T05:25:51;11.86;76.87
78212;SHT31;67490;52.086;5.122;2023-03-19T05:28:38;12.01;76.65
78212;SHT31;67490;52.086;5.122;2023-03-19T05:31:23;11.86;76.98
78212;SHT31;67490;52.086;5.122;2023-03-19T05:34:08;11.70;77.56
78212;SHT31;67490;52.086;5.122;2023-03-19T05:36:52;11.50;78.03
78212;SHT31;67490;52.086;5.122;2023-03-19T05:39:37;11.43;78.20
78212;SHT31;67490;52.086;5.122;2023-03-19T05:42:21;11.37;78.32
78212;SHT31;67490;52.086;5.122;2023-03-19T05:45:08;11.57;77.67
78212;SHT31;67490;52.086;5.122;2023-03-19T05:47:52;11.50;78.05
78212;SHT31;67490;52.086;5.122;2023-03-19T05:50:36;11.68;77.54
78212;SHT31;67490;52.086;5.122;2023-03-19T05:53:21;11.62;77.29
78212;SHT31;67490;52.086;5.122;2023-03-19T05:56:06;11.67;77.12
78212;SHT31;67490;52.086;5.122;2023-03-19T05:58:51;11.67;77.36
78212;SHT31;67490;52.086;5.122;2023-03-19T06:01:36;11.74;76.87
78212;SHT31;67490;52.086;5.122;2023-03-19T06:04:21;11.71;76.75
78212;SHT31;67490;52.086;5.122;2023-03-19T06:07:05;11.77;76.14
78212;SHT31;67490;52.086;5.122;2023-03-19T06:09:50;11.67;76.50
78212;SHT31;67490;52.086;5.122;2023-03-19T06:12:35;11.86;76.00
78212;SHT31;67490;52.086;5.122;2023-03-19T06:15:19;11.89;75.70
78212;SHT31;67490;52.086;5.122;2023-03-19T06:18:05;11.77;75.88
78212;SHT31;67490;52.086;5.122;2023-03-19T06:20:50;11.65;76.48
78212;SHT31;67490;52.086;5.122;2023-03-19T06:23:34;11.48;76.97
78212;SHT31;67490;52.086;5.122;2023-03-19T06:26:18;11.54;76.66
78212;SHT31;67490;52.086;5.122;2023-03-19T06:29:03;11.58;76.01
78212;SHT31;67490;52.086;5.122;2023-03-19T06:31:47;11.54;76.56
78212;SHT31;67490;52.086;5.122;2023-03-19T06:34:33;11.14;77.99
78212;SHT31;67490;52.086;5.122;2023-03-19T06:37:18;11.10;78.43
78212;SHT31;67490;52.086;5.122;2023-03-19T06:40:03;11.17;77.96
78212;SHT31;67490;52.086;5.122;2023-03-19T06:42:48;11.48;77.09
78212;SHT31;67490;52.086;5.122;2023-03-19T06:45:33;11.58;76.89
78212;SHT31;67490;52.086;5.122;2023-03-19T06:48:19;11.67;76.56
78212;SHT31;67490;52.086;5.122;2023-03-19T06:51:05;11.55;76.46
78212;SHT31;67490;52.086;5.122;2023-03-19T06:53:49;11.70;76.61
78212;SHT31;67490;52.086;5.122;2023-03-19T06:56:33;11.65;76.53
78212;SHT31;67490;52.086;5.122;2023-03-19T06:59:18;11.43;77.01
78212;SHT31;67490;52.086;5.122;2023-03-19T07:02:03;11.50;76.98
78212;SHT31;67490;52.086;5.122;2023-03-19T07:04:48;11.67;76.61
78212;SHT31;67490;52.086;5.122;2023-03-19T07:07:35;11.89;75.75
78212;SHT31;67490;52.086;5.122;2023-03-19T07:10:19;11.60;76.67
78212;SHT31;67490;52.086;5.122;2023-03-19T07:13:05;11.30;77.83
78212;SHT31;67490;52.086;5.122;2023-03-19T07:15:49;11.10;78.36
78212;SHT31;67490;52.086;5.122;2023-03-19T07:18:33;11.22;78.19
78212;SHT31;67490;52.086;5.122;2023-03-19T07:21:18;11.04;78.80
78212;SHT31;67490;52.086;5.122;2023-03-19T07:24:05;11.02;78.94
78212;SHT31;67490;52.086;5.122;2023-03-19T07:26:49;10.96;79.39
78212;SHT31;67490;52.086;5.122;2023-03-19T07:29:34;11.07;78.17
78212;SHT31;67490;52.086;5.122;2023-03-19T07:32:19;11.16;78.41
78212;SHT31;67490;52.086;5.122;2023-03-19T07:35:05;11.16;78.04
78212;SHT31;67490;52.086;5.122;2023-03-19T07:37:50;11.23;78.01
78212;SHT31;67490;52.086;5.122;2023-03-19T07:40:36;11.09;78.48
78212;SHT31;67490;52.086;5.122;2023-03-19T07:43:20;11.52;77.16
78212;SHT31;67490;52.086;5.122;2023-03-19T07:46:05;11.75;76.44
78212;SHT31;67490;52.086;5.122;2023-03-19T07:48:51;11.74;76.32
78212;SHT31;67490;52.086;5.122;2023-03-19T07:51:35;11.74;76.88
78212;SHT31;67490;52.086;5.122;2023-03-19T07:54:20;11.71;76.46
78212;SHT31;67490;52.086;5.122;2023-03-19T07:57:08;11.77;78.67
78212;SHT31;67490;52.086;5.122;2023-03-19T07:59:52;11.91;76.34
78212;SHT31;67490;52.086;5.122;2023-03-19T08:02:37;11.85;75.88
78212;SHT31;67490;52.086;5.122;2023-03-19T08:05:22;11.78;76.21
78212;SHT31;67490;52.086;5.122;2023-03-19T08:08:06;11.96;76.00
78212;SHT31;67490;52.086;5.122;2023-03-19T08:10:52;12.11;75.65
78212;SHT31;67490;52.086;5.122;2023-03-19T08:13:38;12.25;74.90
78212;SHT31;67490;52.086;5.122;2023-03-19T08:16:23;12.15;75.53
78212;SHT31;67490;52.086;5.122;2023-03-19T08:19:07;12.06;75.47
78212;SHT31;67490;52.086;5.122;2023-03-19T08:21:53;12.03;75.97
78212;SHT31;67490;52.086;5.122;2023-03-19T08:24:37;12.11;75.29
78212;SHT31;67490;52.086;5.122;2023-03-19T08:27:22;11.99;75.30
78212;SHT31;67490;52.086;5.122;2023-03-19T08:30:10;11.91;75.80
78212;SHT31;67490;52.086;5.122;2023-03-19T08:32:54;11.61;77.06
78212;SHT31;67490;52.086;5.122;2023-03-19T08:35:40;11.62;76.96
78212;SHT31;67490;52.086;5.122;2023-03-19T08:38:25;11.67;76.73
78212;SHT31;67490;52.086;5.122;2023-03-19T08:41:09;11.47;77.27
78212;SHT31;67490;52.086;5.122;2023-03-19T08:43:54;11.55;77.46
78212;SHT31;67490;52.086;5.122;2023-03-19T08:46:40;11.43;77.87
78212;SHT31;67490;52.086;5.122;2023-03-19T08:49:25;11.33;78.62
78212;SHT31;67490;52.086;5.122;2023-03-19T08:52:10;11.48;77.92
78212;SHT31;67490;52.086;5.122;2023-03-19T08:54:54;11.61;77.56
78212;SHT31;67490;52.086;5.122;2023-03-19T08:57:39;11.55;77.82
78212;SHT31;67490;52.086;5.122;2023-03-19T09:00:23;11.75;77.24
78212;SHT31;67490;52.086;5.122;2023-03-19T09:03:09;11.88;76.65
78212;SHT31;67490;52.086;5.122;2023-03-19T09:05:57;11.67;77.25
78212;SHT31;67490;52.086;5.122;2023-03-19T09:08:41;11.85;76.78
78212;SHT31;67490;52.086;5.122;2023-03-19T09:11:27;11.78;77.14
78212;SHT31;67490;52.086;5.122;2023-03-19T09:14:11;11.85;77.06
78212;SHT31;67490;52.086;5.122;2023-03-19T09:16:56;11.95;76.93
78212;SHT31;67490;52.086;5.122;2023-03-19T09:19:42;11.85;77.27
78212;SHT31;67490;52.086;5.122;2023-03-19T09:22:26;11.99;76.71
78212;SHT31;67490;52.086;5.122;2023-03-19T09:25:11;12.23;76.04
78212;SHT31;67490;52.086;5.122;2023-03-19T09:27:56;12.19;76.12
78212;SHT31;67490;52.086;5.122;2023-03-19T09:30:40;12.33;76.09
78212;SHT31;67490;52.086;5.122;2023-03-19T09:33:25;12.40;75.49
78212;SHT31;67490;52.086;5.122;2023-03-19T09:36:11;12.22;76.19
78212;SHT31;67490;52.086;5.122;2023-03-19T09:38:56;12.22;76.29
78212;SHT31;67490;52.086;5.122;2023-03-19T09:41:59;12.39;76.02
78212;SHT31;67490;52.086;5.122;2023-03-19T09:44:48;12.30;76.02
78212;SHT31;67490;52.086;5.122;2023-03-19T09:47:36;12.47;75.54
78212;SHT31;67490;52.086;5.122;2023-03-19T09:50:24;12.57;75.28
78212;SHT31;67490;52.086;5.122;2023-03-19T09:53:21;12.36;75.57
78212;SHT31;67490;52.086;5.122;2023-03-19T09:56:13;12.08;76.66
78212;SHT31;67490;52.086;5.122;2023-03-19T09:58:58;11.89;77.46
78212;SHT31;67490;52.086;5.122;2023-03-19T10:01:51;11.93;77.34
78212;SHT31;67490;52.086;5.122;2023-03-19T10:04:43;12.02;77.00
78212;SHT31;67490;52.086;5.122;2023-03-19T10:07:40;12.34;76.36
78212;SHT31;67490;52.086;5.122;2023-03-19T10:10:37;12.43;75.88
78212;SHT31;67490;52.086;5.122;2023-03-19T10:13:44;12.19;76.62
78212;SHT31;67490;52.086;5.122;2023-03-19T10:16:31;12.29;75.92
78212;SHT31;67490;52.086;5.122;2023-03-19T10:19:23;12.13;76.53
78212;SHT31;67490;52.086;5.122;2023-03-19T10:22:13;12.47;75.87
78212;SHT31;67490;52.086;5.122;2023-03-19T10:25:01;12.60;75.30
78212;SHT31;67490;52.086;5.122;2023-03-19T10:27:54;12.54;75.17
78212;SHT31;67490;52.086;5.122;2023-03-19T10:30:41;12.64;75.11
78212;SHT31;67490;52.086;5.122;2023-03-19T10:33:42;12.56;76.82
78212;SHT31;67490;52.086;5.122;2023-03-19T10:36:34;12.44;76.49
78212;SHT31;67490;52.086;5.122;2023-03-19T10:39:18;12.53;76.22
78212;SHT31;67490;52.086;5.122;2023-03-19T10:42:20;12.28;76.27
78212;SHT31;67490;52.086;5.122;2023-03-19T10:45:20;12.23;76.69
78212;SHT31;67490;52.086;5.122;2023-03-19T10:48:13;12.23;76.24
78212;SHT31;67490;52.086;5.122;2023-03-19T10:51:00;12.23;76.41
78212;SHT31;67490;52.086;5.122;2023-03-19T10:53:44;12.42;75.61
78212;SHT31;67490;52.086;5.122;2023-03-19T10:56:33;12.40;75.41
78212;SHT31;67490;52.086;5.122;2023-03-19T10:59:23;12.49;75.87
78212;SHT31;67490;52.086;5.122;2023-03-19T11:02:16;12.53;75.24
78212;SHT31;67490;52.086;5.122;2023-03-19T11:05:06;12.60;74.76
78212;SHT31;67490;52.086;5.122;2023-03-19T11:07:56;12.70;74.36
78212;SHT31;67490;52.086;5.122;2023-03-19T11:10:46;12.59;74.84
78212;SHT31;67490;52.086;5.122;2023-03-19T11:13:34;12.73;74.59
78212;SHT31;67490;52.086;5.122;2023-03-19T11:16:19;12.77;74.59
78212;SHT31;67490;52.086;5.122;2023-03-19T11:19:18;12.85;73.85
78212;SHT31;67490;52.086;5.122;2023-03-19T11:22:16;13.01;73.72
78212;SHT31;67490;52.086;5.122;2023-03-19T11:25:13;13.15;73.19
78212;SHT31;67490;52.086;5.122;2023-03-19T11:28:00;13.04;73.37
78212;SHT31;67490;52.086;5.122;2023-03-19T11:30:54;12.83;73.71
78212;SHT31;67490;52.086;5.122;2023-03-19T11:33:53;12.67;74.54
78212;SHT31;67490;52.086;5.122;2023-03-19T11:36:50;12.83;73.98
78212;SHT31;67490;52.086;5.122;2023-03-19T11:39:45;12.54;74.88
78212;SHT31;67490;52.086;5.122;2023-03-19T11:42:52;12.53;75.27
78212;SHT31;67490;52.086;5.122;2023-03-19T11:45:52;12.65;75.19
78212;SHT31;67490;52.086;5.122;2023-03-19T11:52:02;12.91;74.47
78212;SHT31;67490;52.086;5.122;2023-03-19T11:55:02;12.98;73.28
78212;SHT31;67490;52.086;5.122;2023-03-19T11:58:14;13.05;73.12
78212;SHT31;67490;52.086;5.122;2023-03-19T12:01:09;13.18;72.84
78212;SHT31;67490;52.086;5.122;2023-03-19T12:04:15;13.05;73.14
78212;SHT31;67490;52.086;5.122;2023-03-19T12:07:15;13.22;72.39
78212;SHT31;67490;52.086;5.122;2023-03-19T12:10:25;13.36;72.63
78212;SHT31;67490;52.086;5.122;2023-03-19T12:13:24;13.16;73.13
78212;SHT31;67490;52.086;5.122;2023-03-19T12:16:20;13.42;73.01
78212;SHT31;67490;52.086;5.122;2023-03-19T12:19:40;13.60;72.51
78212;SHT31;67490;52.086;5.122;2023-03-19T12:22:46;13.79;71.89
78212;SHT31;67490;52.086;5.122;2023-03-19T12:25:49;13.67;72.03
78212;SHT31;67490;52.086;5.122;2023-03-19T12:28:44;13.77;72.20
78212;SHT31;67490;52.086;5.122;2023-03-19T12:31:49;13.84;71.06
78212;SHT31;67490;52.086;5.122;2023-03-19T12:34:42;13.80;71.48
78212;SHT31;67490;52.086;5.122;2023-03-19T12:37:38;13.74;71.41
78212;SHT31;67490;52.086;5.122;2023-03-19T12:40:31;13.73;71.79
78212;SHT31;67490;52.086;5.122;2023-03-19T12:43:23;13.96;71.51
78212;SHT31;67490;52.086;5.122;2023-03-19T12:46:13;13.96;71.19
78212;SHT31;67490;52.086;5.122;2023-03-19T12:49:06;14.11;70.76
78212;SHT31;67490;52.086;5.122;2023-03-19T12:51:54;14.34;69.52
78212;SHT31;67490;52.086;5.122;2023-03-19T12:54:46;14.32;69.86
78212;SHT31;67490;52.086;5.122;2023-03-19T12:57:40;14.11;69.49
78212;SHT31;67490;52.086;5.122;2023-03-19T13:00:33;14.37;69.50
78212;SHT31;67490;52.086;5.122;2023-03-19T13:03:24;14.42;69.23
78212;SHT31;67490;52.086;5.122;2023-03-19T13:06:18;14.37;69.11
78212;SHT31;67490;52.086;5.122;2023-03-19T13:09:12;14.52;68.81
78212;SHT31;67490;52.086;5.122;2023-03-19T13:12:03;14.68;68.49
78212;SHT31;67490;52.086;5.122;2023-03-19T13:14:57;14.90;67.91
78212;SHT31;67490;52.086;5.122;2023-03-19T13:17:55;14.99;67.44
78212;SHT31;67490;52.086;5.122;2023-03-19T13:20:59;14.92;67.48
78212;SHT31;67490;52.086;5.122;2023-03-19T13:23:50;14.95;67.76
78212;SHT31;67490;52.086;5.122;2023-03-19T13:26:42;14.82;68.05
78212;SHT31;67490;52.086;5.122;2023-03-19T13:29:31;15.00;67.66
78212;SHT31;67490;52.086;5.122;2023-03-19T13:32:23;15.27;67.37
78212;SHT31;67490;52.086;5.122;2023-03-19T13:35:24;14.85;67.76
78212;SHT31;67490;52.086;5.122;2023-03-19T13:38:18;14.93;67.64
78212;SHT31;67490;52.086;5.122;2023-03-19T13:41:04;14.80;68.21
78212;SHT31;67490;52.086;5.122;2023-03-19T13:43:54;14.78;68.04
78212;SHT31;67490;52.086;5.122;2023-03-19T13:46:41;15.07;67.24
78212;SHT31;67490;52.086;5.122;2023-03-19T13:49:29;14.97;67.55
78212;SHT31;67490;52.086;5.122;2023-03-19T13:52:47;15.16;66.71
78212;SHT31;67490;52.086;5.122;2023-03-19T13:55:45;15.26;66.09
78212;SHT31;67490;52.086;5.122;2023-03-19T13:58:44;15.31;66.25
78212;SHT31;67490;52.086;5.122;2023-03-19T14:01:40;15.30;66.61
78212;SHT31;67490;52.086;5.122;2023-03-19T14:04:30;15.47;66.69
78212;SHT31;67490;52.086;5.122;2023-03-19T14:07:18;15.37;66.78
78212;SHT31;67490;52.086;5.122;2023-03-19T14:10:09;15.46;66.86
78212;SHT31;67490;52.086;5.122;2023-03-19T14:13:06;15.31;67.37
78212;SHT31;67490;52.086;5.122;2023-03-19T14:15:52;15.28;67.07
78212;SHT31;67490;52.086;5.122;2023-03-19T14:18:42;15.34;66.09
78212;SHT31;67490;52.086;5.122;2023-03-19T14:21:33;15.23;66.49
78212;SHT31;67490;52.086;5.122;2023-03-19T14:24:33;15.14;66.78
78212;SHT31;67490;52.086;5.122;2023-03-19T14:27:25;15.13;67.17
78212;SHT31;67490;52.086;5.122;2023-03-19T14:30:30;15.16;66.10
78212;SHT31;67490;52.086;5.122;2023-03-19T14:33:21;15.17;66.49
78212;SHT31;67490;52.086;5.122;2023-03-19T14:36:14;15.02;66.73
78212;SHT31;67490;52.086;5.122;2023-03-19T14:39:06;14.83;66.76
78212;SHT31;67490;52.086;5.122;2023-03-19T14:41:57;14.79;66.98
78212;SHT31;67490;52.086;5.122;2023-03-19T14:45:20;14.92;66.77
78212;SHT31;67490;52.086;5.122;2023-03-19T14:48:42;15.10;66.25
78212;SHT31;67490;52.086;5.122;2023-03-19T14:52:11;15.03;66.45
78212;SHT31;67490;52.086;5.122;2023-03-19T14:54:59;14.73;66.71
78212;SHT31;67490;52.086;5.122;2023-03-19T14:57:44;14.87;66.23
78212;SHT31;67490;52.086;5.122;2023-03-19T15:00:39;15.11;65.39
78212;SHT31;67490;52.086;5.122;2023-03-19T15:03:30;15.02;66.22
78212;SHT31;67490;52.086;5.122;2023-03-19T15:06:16;14.97;66.29
78212;SHT31;67490;52.086;5.122;2023-03-19T15:09:06;15.09;65.35
78212;SHT31;67490;52.086;5.122;2023-03-19T15:12:12;14.55;66.85
78212;SHT31;67490;52.086;5.122;2023-03-19T15:15:20;14.52;67.23
78212;SHT31;67490;52.086;5.122;2023-03-19T15:18:10;14.61;66.89
78212;SHT31;67490;52.086;5.122;2023-03-19T15:20:56;14.62;66.96
78212;SHT31;67490;52.086;5.122;2023-03-19T15:23:44;14.71;66.90
78212;SHT31;67490;52.086;5.122;2023-03-19T15:26:31;14.66;67.34
78212;SHT31;67490;52.086;5.122;2023-03-19T15:29:28;14.61;67.17
78212;SHT31;67490;52.086;5.122;2023-03-19T15:32:31;14.76;67.03
78212;SHT31;67490;52.086;5.122;2023-03-19T15:35:17;14.86;66.73
78212;SHT31;67490;52.086;5.122;2023-03-19T15:38:08;15.00;66.04
78212;SHT31;67490;52.086;5.122;2023-03-19T15:40:53;15.23;65.49
78212;SHT31;67490;52.086;5.122;2023-03-19T15:43:40;15.33;65.19
78212;SHT31;67490;52.086;5.122;2023-03-19T15:46:30;15.24;65.28
78212;SHT31;67490;52.086;5.122;2023-03-19T15:49:20;14.92;66.60
78212;SHT31;67490;52.086;5.122;2023-03-19T15:52:11;14.82;66.68
78212;SHT31;67490;52.086;5.122;2023-03-19T15:55:00;14.03;69.95
78212;SHT31;67490;52.086;5.122;2023-03-19T15:57:46;13.81;71.22
78212;SHT31;67490;52.086;5.122;2023-03-19T16:00:35;13.98;70.44
78212;SHT31;67490;52.086;5.122;2023-03-19T16:03:25;14.11;70.52
78212;SHT31;67490;52.086;5.122;2023-03-19T16:06:16;14.14;70.46
78212;SHT31;67490;52.086;5.122;2023-03-19T16:09:18;14.10;70.07
78212;SHT31;67490;52.086;5.122;2023-03-19T16:12:02;14.25;70.22
78212;SHT31;67490;52.086;5.122;2023-03-19T16:14:47;14.24;69.70
78212;SHT31;67490;52.086;5.122;2023-03-19T16:17:34;14.28;69.84
78212;SHT31;67490;52.086;5.122;2023-03-19T16:20:19;14.16;70.05
78212;SHT31;67490;52.086;5.122;2023-03-19T16:23:03;14.06;70.41
78212;SHT31;67490;52.086;5.122;2023-03-19T16:25:48;14.00;70.46
78212;SHT31;67490;52.086;5.122;2023-03-19T16:28:33;14.03;70.63
78212;SHT31;67490;52.086;5.122;2023-03-19T16:31:23;13.97;70.60
78212;SHT31;67490;52.086;5.122;2023-03-19T16:34:23;13.86;70.56
78212;SHT31;67490;52.086;5.122;2023-03-19T16:37:27;13.93;70.53
78212;SHT31;67490;52.086;5.122;2023-03-19T16:40:41;13.98;70.17
78212;SHT31;67490;52.086;5.122;2023-03-19T16:43:31;13.90;70.31
78212;SHT31;67490;52.086;5.122;2023-03-19T16:46:17;13.71;71.01
78212;SHT31;67490;52.086;5.122;2023-03-19T16:49:02;13.52;71.48
78212;SHT31;67490;52.086;5.122;2023-03-19T16:51:49;13.52;71.34
78212;SHT31;67490;52.086;5.122;2023-03-19T16:54:33;13.36;72.07
78212;SHT31;67490;52.086;5.122;2023-03-19T16:57:18;13.38;72.23
78212;SHT31;67490;52.086;5.122;2023-03-19T17:00:03;13.60;71.18
78212;SHT31;67490;52.086;5.122;2023-03-19T17:02:48;13.73;70.71
78212;SHT31;67490;52.086;5.122;2023-03-19T17:05:32;13.71;70.49
78212;SHT31;67490;52.086;5.122;2023-03-19T17:08:18;13.58;71.08
78212;SHT31;67490;52.086;5.122;2023-03-19T17:11:05;13.43;72.02
78212;SHT31;67490;52.086;5.122;2023-03-19T17:13:51;13.46;71.83
78212;SHT31;67490;52.086;5.122;2023-03-19T17:16:36;13.34;72.08
78212;SHT31;67490;52.086;5.122;2023-03-19T17:19:23;13.29;71.67
78212;SHT31;67490;52.086;5.122;2023-03-19T17:22:10;13.19;71.62
78212;SHT31;67490;52.086;5.122;2023-03-19T17:24:58;13.18;71.76
78212;SHT31;67490;52.086;5.122;2023-03-19T17:27:42;12.95;72.80
78212;SHT31;67490;52.086;5.122;2023-03-19T17:30:27;13.07;72.31
78212;SHT31;67490;52.086;5.122;2023-03-19T17:33:21;13.02;72.33
78212;SHT31;67490;52.086;5.122;2023-03-19T17:36:08;13.29;71.19
78212;SHT31;67490;52.086;5.122;2023-03-19T17:38:53;13.38;71.00
78212;SHT31;67490;52.086;5.122;2023-03-19T17:41:39;13.19;71.62
78212;SHT31;67490;52.086;5.122;2023-03-19T17:44:24;13.16;72.42
78212;SHT31;67490;52.086;5.122;2023-03-19T17:47:09;13.28;72.00